Terminal Aerodrome Forecast
Issued by NWS Charleston, SC

Home | Current Version | Previous Version | Text Only | Print | Product List | Glossary On
Versions: 1 2 3 4 5 6 7 8 9 10 11 12 13 14
000
FTUS42 KCHS 050536
TAFCHS
TAF
KCHS 050536Z 0506/0606 VRB03KT P6SM FEW040 BKN080
     FM050900 03005KT P6SM FEW030 BKN100
     FM051500 06008KT P6SM VCSH SCT035
     FM052000 10009KT P6SM SCT040
     FM060200 04003KT P6SM FEW040 BKN100=

USA.gov is the U.S. government's official web portal to all federal, state and local government web resources and services.